sensor_id;sensor_type;location;lat;lon;timestamp;P1;durP1;ratioP1;P2;durP2;ratioP2
15488;SDS011;7846;48.830;9.116;2022-10-24T00:00:27;3.20;;;1.03;;
15488;SDS011;7846;48.830;9.116;2022-10-24T00:02:52;3.93;;;1.17;;
15488;SDS011;7846;48.830;9.116;2022-10-24T00:05:18;3.60;;;1.30;;
15488;SDS011;7846;48.830;9.116;2022-10-24T00:07:45;4.33;;;1.40;;
15488;SDS011;7846;48.830;9.116;2022-10-24T00:10:11;4.43;;;1.20;;
15488;SDS011;7846;48.830;9.116;2022-10-24T00:12:38;6.27;;;1.50;;
15488;SDS011;7846;48.830;9.116;2022-10-24T00:15:04;4.57;;;1.37;;
15488;SDS011;7846;48.830;9.116;2022-10-24T00:17:30;7.37;;;1.63;;
15488;SDS011;7846;48.830;9.116;2022-10-24T00:19:56;5.47;;;1.50;;
15488;SDS011;7846;48.830;9.116;2022-10-24T00:22:23;5.20;;;1.23;;
15488;SDS011;7846;48.830;9.116;2022-10-24T00:24:50;3.07;;;1.10;;
15488;SDS011;7846;48.830;9.116;2022-10-24T00:27:16;3.80;;;1.30;;
15488;SDS011;7846;48.830;9.116;2022-10-24T00:29:42;7.20;;;1.20;;
15488;SDS011;7846;48.830;9.116;2022-10-24T00:32:07;3.83;;;1.30;;
15488;SDS011;7846;48.830;9.116;2022-10-24T00:34:33;4.07;;;1.30;;
15488;SDS011;7846;48.830;9.116;2022-10-24T00:36:59;3.63;;;1.20;;
15488;SDS011;7846;48.830;9.116;2022-10-24T00:39:25;4.57;;;1.40;;
15488;SDS011;7846;48.830;9.116;2022-10-24T00:41:53;4.80;;;1.23;;
15488;SDS011;7846;48.830;9.116;2022-10-24T00:44:24;7.03;;;1.30;;
15488;SDS011;7846;48.830;9.116;2022-10-24T00:49:30;3.83;;;1.30;;
15488;SDS011;7846;48.830;9.116;2022-10-24T00:52:09;4.03;;;1.50;;
15488;SDS011;7846;48.830;9.116;2022-10-24T00:54:35;4.67;;;1.50;;
15488;SDS011;7846;48.830;9.116;2022-10-24T00:57:07;4.03;;;1.33;;
15488;SDS011;7846;48.830;9.116;2022-10-24T00:59:47;7.70;;;1.53;;
15488;SDS011;7846;48.830;9.116;2022-10-24T01:02:17;3.40;;;1.27;;
15488;SDS011;7846;48.830;9.116;2022-10-24T01:04:42;5.63;;;1.77;;
15488;SDS011;7846;48.830;9.116;2022-10-24T01:07:14;5.73;;;1.50;;
15488;SDS011;7846;48.830;9.116;2022-10-24T01:15:42;4.73;;;1.23;;
15488;SDS011;7846;48.830;9.116;2022-10-24T01:18:12;5.33;;;1.57;;
15488;SDS011;7846;48.830;9.116;2022-10-24T01:20:55;6.03;;;1.40;;
15488;SDS011;7846;48.830;9.116;2022-10-24T01:23:35;3.93;;;1.50;;
15488;SDS011;7846;48.830;9.116;2022-10-24T01:29:07;3.77;;;1.30;;
15488;SDS011;7846;48.830;9.116;2022-10-24T01:31:56;5.60;;;1.27;;
15488;SDS011;7846;48.830;9.116;2022-10-24T01:34:37;6.10;;;1.50;;
15488;SDS011;7846;48.830;9.116;2022-10-24T01:37:09;6.40;;;1.73;;
15488;SDS011;7846;48.830;9.116;2022-10-24T01:39:43;5.37;;;1.50;;
15488;SDS011;7846;48.830;9.116;2022-10-24T01:42:16;4.20;;;1.33;;
15488;SDS011;7846;48.830;9.116;2022-10-24T01:44:47;6.53;;;1.73;;
15488;SDS011;7846;48.830;9.116;2022-10-24T01:47:16;7.03;;;1.63;;
15488;SDS011;7846;48.830;9.116;2022-10-24T01:49:49;5.33;;;1.50;;
15488;SDS011;7846;48.830;9.116;2022-10-24T01:52:20;4.93;;;1.60;;
15488;SDS011;7846;48.830;9.116;2022-10-24T01:54:46;4.77;;;1.60;;
15488;SDS011;7846;48.830;9.116;2022-10-24T01:57:13;5.17;;;1.90;;
15488;SDS011;7846;48.830;9.116;2022-10-24T01:59:41;5.13;;;1.57;;
15488;SDS011;7846;48.830;9.116;2022-10-24T02:02:15;7.83;;;1.53;;
15488;SDS011;7846;48.830;9.116;2022-10-24T02:04:47;4.90;;;1.63;;
15488;SDS011;7846;48.830;9.116;2022-10-24T02:07:17;5.57;;;1.63;;
15488;SDS011;7846;48.830;9.116;2022-10-24T02:09:45;9.10;;;1.70;;
15488;SDS011;7846;48.830;9.116;2022-10-24T02:12:16;4.80;;;1.60;;
15488;SDS011;7846;48.830;9.116;2022-10-24T02:14:50;5.37;;;1.77;;
15488;SDS011;7846;48.830;9.116;2022-10-24T02:17:22;7.13;;;1.80;;
15488;SDS011;7846;48.830;9.116;2022-10-24T02:19:47;6.90;;;1.83;;
15488;SDS011;7846;48.830;9.116;2022-10-24T02:22:25;6.50;;;1.70;;
15488;SDS011;7846;48.830;9.116;2022-10-24T02:25:02;6.80;;;1.63;;
15488;SDS011;7846;48.830;9.116;2022-10-24T02:27:34;5.50;;;1.60;;
15488;SDS011;7846;48.830;9.116;2022-10-24T02:30:08;4.80;;;1.70;;
15488;SDS011;7846;48.830;9.116;2022-10-24T02:32:37;6.97;;;2.07;;
15488;SDS011;7846;48.830;9.116;2022-10-24T02:35:06;4.03;;;1.90;;
15488;SDS011;7846;48.830;9.116;2022-10-24T02:37:35;7.40;;;1.90;;
15488;SDS011;7846;48.830;9.116;2022-10-24T02:40:07;6.87;;;1.70;;
15488;SDS011;7846;48.830;9.116;2022-10-24T02:42:36;4.30;;;1.90;;
15488;SDS011;7846;48.830;9.116;2022-10-24T02:45:03;5.13;;;1.90;;
15488;SDS011;7846;48.830;9.116;2022-10-24T02:47:31;5.00;;;1.83;;
15488;SDS011;7846;48.830;9.116;2022-10-24T02:49:59;7.73;;;2.00;;
15488;SDS011;7846;48.830;9.116;2022-10-24T02:52:24;4.63;;;1.70;;
15488;SDS011;7846;48.830;9.116;2022-10-24T02:54:52;4.87;;;1.73;;
15488;SDS011;7846;48.830;9.116;2022-10-24T02:57:17;5.57;;;1.90;;
15488;SDS011;7846;48.830;9.116;2022-10-24T02:59:43;8.17;;;2.00;;
15488;SDS011;7846;48.830;9.116;2022-10-24T03:02:08;4.40;;;1.87;;
15488;SDS011;7846;48.830;9.116;2022-10-24T03:04:34;7.00;;;1.80;;
15488;SDS011;7846;48.830;9.116;2022-10-24T03:07:00;4.80;;;1.60;;
15488;SDS011;7846;48.830;9.116;2022-10-24T03:09:25;6.63;;;1.80;;
15488;SDS011;7846;48.830;9.116;2022-10-24T03:11:51;4.73;;;1.80;;
15488;SDS011;7846;48.830;9.116;2022-10-24T03:14:16;5.10;;;2.20;;
15488;SDS011;7846;48.830;9.116;2022-10-24T03:16:42;6.87;;;1.83;;
15488;SDS011;7846;48.830;9.116;2022-10-24T03:19:07;5.10;;;2.03;;
15488;SDS011;7846;48.830;9.116;2022-10-24T03:21:33;9.17;;;2.13;;
15488;SDS011;7846;48.830;9.116;2022-10-24T03:23:59;6.97;;;2.10;;
15488;SDS011;7846;48.830;9.116;2022-10-24T03:26:25;8.67;;;2.13;;
15488;SDS011;7846;48.830;9.116;2022-10-24T03:28:50;9.73;;;1.97;;
15488;SDS011;7846;48.830;9.116;2022-10-24T03:31:16;10.80;;;2.50;;
15488;SDS011;7846;48.830;9.116;2022-10-24T03:33:42;7.30;;;2.30;;
15488;SDS011;7846;48.830;9.116;2022-10-24T03:36:08;6.73;;;2.00;;
15488;SDS011;7846;48.830;9.116;2022-10-24T03:38:33;6.07;;;2.07;;
15488;SDS011;7846;48.830;9.116;2022-10-24T03:40:59;8.83;;;2.30;;
15488;SDS011;7846;48.830;9.116;2022-10-24T03:43:25;8.13;;;2.20;;
15488;SDS011;7846;48.830;9.116;2022-10-24T03:45:52;6.70;;;2.03;;
15488;SDS011;7846;48.830;9.116;2022-10-24T03:48:17;6.77;;;2.40;;
15488;SDS011;7846;48.830;9.116;2022-10-24T03:50:43;7.53;;;2.30;;
15488;SDS011;7846;48.830;9.116;2022-10-24T03:53:09;12.40;;;2.50;;
15488;SDS011;7846;48.830;9.116;2022-10-24T03:55:36;9.63;;;2.10;;
15488;SDS011;7846;48.830;9.116;2022-10-24T03:58:02;9.13;;;2.30;;
15488;SDS011;7846;48.830;9.116;2022-10-24T04:00:28;7.73;;;2.43;;
15488;SDS011;7846;48.830;9.116;2022-10-24T04:02:54;8.63;;;2.37;;
15488;SDS011;7846;48.830;9.116;2022-10-24T04:05:19;8.07;;;2.40;;
15488;SDS011;7846;48.830;9.116;2022-10-24T04:07:45;9.87;;;2.10;;
15488;SDS011;7846;48.830;9.116;2022-10-24T04:10:11;10.13;;;2.00;;
15488;SDS011;7846;48.830;9.116;2022-10-24T04:12:36;8.33;;;2.30;;
15488;SDS011;7846;48.830;9.116;2022-10-24T04:15:03;5.20;;;2.10;;
15488;SDS011;7846;48.830;9.116;2022-10-24T04:17:29;8.93;;;2.37;;
15488;SDS011;7846;48.830;9.116;2022-10-24T04:19:55;7.37;;;2.23;;
15488;SDS011;7846;48.830;9.116;2022-10-24T04:22:21;10.87;;;2.30;;
15488;SDS011;7846;48.830;9.116;2022-10-24T04:24:47;6.47;;;2.00;;
15488;SDS011;7846;48.830;9.116;2022-10-24T04:27:13;9.17;;;2.30;;
15488;SDS011;7846;48.830;9.116;2022-10-24T04:29:38;8.90;;;2.00;;
15488;SDS011;7846;48.830;9.116;2022-10-24T04:32:05;7.00;;;1.93;;
15488;SDS011;7846;48.830;9.116;2022-10-24T04:34:32;6.40;;;2.03;;
15488;SDS011;7846;48.830;9.116;2022-10-24T04:37:01;6.00;;;2.20;;
15488;SDS011;7846;48.830;9.116;2022-10-24T04:39:27;10.77;;;2.40;;
15488;SDS011;7846;48.830;9.116;2022-10-24T04:41:52;7.40;;;2.20;;
15488;SDS011;7846;48.830;9.116;2022-10-24T04:44:17;7.93;;;2.20;;
15488;SDS011;7846;48.830;9.116;2022-10-24T04:46:43;9.27;;;2.20;;
15488;SDS011;7846;48.830;9.116;2022-10-24T04:49:08;6.67;;;2.40;;
15488;SDS011;7846;48.830;9.116;2022-10-24T04:51:34;5.97;;;1.97;;
15488;SDS011;7846;48.830;9.116;2022-10-24T04:53:59;9.07;;;2.50;;
15488;SDS011;7846;48.830;9.116;2022-10-24T04:56:25;4.73;;;2.00;;
15488;SDS011;7846;48.830;9.116;2022-10-24T04:58:50;6.60;;;2.03;;
15488;SDS011;7846;48.830;9.116;2022-10-24T05:01:16;6.93;;;2.03;;
15488;SDS011;7846;48.830;9.116;2022-10-24T05:03:41;7.53;;;2.00;;
15488;SDS011;7846;48.830;9.116;2022-10-24T05:06:09;8.57;;;2.10;;
15488;SDS011;7846;48.830;9.116;2022-10-24T05:08:35;7.10;;;2.00;;
15488;SDS011;7846;48.830;9.116;2022-10-24T05:11:01;7.70;;;2.20;;
15488;SDS011;7846;48.830;9.116;2022-10-24T05:13:26;8.03;;;2.17;;
15488;SDS011;7846;48.830;9.116;2022-10-24T05:15:52;6.77;;;2.07;;
15488;SDS011;7846;48.830;9.116;2022-10-24T05:18:17;5.77;;;2.30;;
15488;SDS011;7846;48.830;9.116;2022-10-24T05:20:42;7.00;;;1.70;;
15488;SDS011;7846;48.830;9.116;2022-10-24T05:23:08;6.63;;;2.13;;
15488;SDS011;7846;48.830;9.116;2022-10-24T05:25:33;6.70;;;2.50;;
15488;SDS011;7846;48.830;9.116;2022-10-24T05:27:59;10.93;;;2.90;;
15488;SDS011;7846;48.830;9.116;2022-10-24T05:30:24;10.43;;;2.30;;
15488;SDS011;7846;48.830;9.116;2022-10-24T05:32:50;6.13;;;2.10;;
15488;SDS011;7846;48.830;9.116;2022-10-24T05:35:15;7.23;;;1.90;;
15488;SDS011;7846;48.830;9.116;2022-10-24T05:37:41;6.83;;;2.00;;
15488;SDS011;7846;48.830;9.116;2022-10-24T05:40:08;7.90;;;2.10;;
15488;SDS011;7846;48.830;9.116;2022-10-24T05:42:35;7.60;;;2.43;;
15488;SDS011;7846;48.830;9.116;2022-10-24T05:45:03;8.20;;;2.40;;
15488;SDS011;7846;48.830;9.116;2022-10-24T05:47:30;7.27;;;2.00;;
15488;SDS011;7846;48.830;9.116;2022-10-24T05:49:56;5.50;;;2.20;;
15488;SDS011;7846;48.830;9.116;2022-10-24T05:52:21;7.53;;;2.43;;
15488;SDS011;7846;48.830;9.116;2022-10-24T05:54:47;6.27;;;2.23;;
15488;SDS011;7846;48.830;9.116;2022-10-24T05:57:12;7.10;;;2.23;;
15488;SDS011;7846;48.830;9.116;2022-10-24T05:59:37;8.00;;;2.03;;
15488;SDS011;7846;48.830;9.116;2022-10-24T06:02:03;6.80;;;2.50;;
15488;SDS011;7846;48.830;9.116;2022-10-24T06:04:28;9.23;;;2.80;;
15488;SDS011;7846;48.830;9.116;2022-10-24T06:06:55;9.13;;;2.47;;
15488;SDS011;7846;48.830;9.116;2022-10-24T06:09:20;8.17;;;2.80;;
15488;SDS011;7846;48.830;9.116;2022-10-24T06:11:45;7.17;;;2.03;;
15488;SDS011;7846;48.830;9.116;2022-10-24T06:14:12;8.17;;;2.00;;
15488;SDS011;7846;48.830;9.116;2022-10-24T06:16:37;9.13;;;2.70;;
15488;SDS011;7846;48.830;9.116;2022-10-24T06:19:03;6.27;;;2.40;;
15488;SDS011;7846;48.830;9.116;2022-10-24T06:21:28;6.53;;;2.40;;
15488;SDS011;7846;48.830;9.116;2022-10-24T06:23:54;9.40;;;2.40;;
15488;SDS011;7846;48.830;9.116;2022-10-24T06:26:19;7.93;;;2.40;;
15488;SDS011;7846;48.830;9.116;2022-10-24T06:28:46;8.97;;;2.60;;
15488;SDS011;7846;48.830;9.116;2022-10-24T06:31:11;5.17;;;2.10;;
15488;SDS011;7846;48.830;9.116;2022-10-24T06:33:38;6.07;;;2.50;;
15488;SDS011;7846;48.830;9.116;2022-10-24T06:36:05;4.83;;;2.53;;
15488;SDS011;7846;48.830;9.116;2022-10-24T06:38:33;7.87;;;2.60;;
15488;SDS011;7846;48.830;9.116;2022-10-24T06:41:03;8.90;;;2.17;;
15488;SDS011;7846;48.830;9.116;2022-10-24T06:43:31;7.13;;;2.40;;
15488;SDS011;7846;48.830;9.116;2022-10-24T06:45:57;8.20;;;2.57;;
15488;SDS011;7846;48.830;9.116;2022-10-24T06:48:23;7.17;;;2.30;;
15488;SDS011;7846;48.830;9.116;2022-10-24T06:50:48;6.77;;;2.50;;
15488;SDS011;7846;48.830;9.116;2022-10-24T06:53:14;6.63;;;2.70;;
15488;SDS011;7846;48.830;9.116;2022-10-24T06:55:40;4.53;;;2.10;;
15488;SDS011;7846;48.830;9.116;2022-10-24T06:58:08;9.07;;;2.50;;
15488;SDS011;7846;48.830;9.116;2022-10-24T07:00:33;8.17;;;2.17;;
15488;SDS011;7846;48.830;9.116;2022-10-24T07:03:05;6.03;;;2.60;;
15488;SDS011;7846;48.830;9.116;2022-10-24T07:05:32;8.13;;;2.83;;
15488;SDS011;7846;48.830;9.116;2022-10-24T07:07:58;9.10;;;2.93;;
15488;SDS011;7846;48.830;9.116;2022-10-24T07:10:24;12.00;;;3.23;;
15488;SDS011;7846;48.830;9.116;2022-10-24T07:12:51;9.00;;;3.20;;
15488;SDS011;7846;48.830;9.116;2022-10-24T07:15:16;8.43;;;2.70;;
15488;SDS011;7846;48.830;9.116;2022-10-24T07:17:42;7.57;;;3.13;;
15488;SDS011;7846;48.830;9.116;2022-10-24T07:20:09;9.13;;;2.80;;
15488;SDS011;7846;48.830;9.116;2022-10-24T07:22:36;10.17;;;2.90;;
15488;SDS011;7846;48.830;9.116;2022-10-24T07:25:03;7.67;;;2.60;;
15488;SDS011;7846;48.830;9.116;2022-10-24T07:27:30;8.43;;;2.93;;
15488;SDS011;7846;48.830;9.116;2022-10-24T07:29:57;8.17;;;2.77;;
15488;SDS011;7846;48.830;9.116;2022-10-24T07:32:25;7.90;;;2.80;;
15488;SDS011;7846;48.830;9.116;2022-10-24T07:34:50;9.13;;;3.10;;
15488;SDS011;7846;48.830;9.116;2022-10-24T07:37:16;10.67;;;3.40;;
15488;SDS011;7846;48.830;9.116;2022-10-24T07:39:42;8.07;;;3.23;;
15488;SDS011;7846;48.830;9.116;2022-10-24T07:42:12;10.37;;;3.40;;
15488;SDS011;7846;48.830;9.116;2022-10-24T07:44:39;7.97;;;3.37;;
15488;SDS011;7846;48.830;9.116;2022-10-24T07:47:10;8.50;;;3.37;;
15488;SDS011;7846;48.830;9.116;2022-10-24T07:49:36;13.10;;;2.93;;
15488;SDS011;7846;48.830;9.116;2022-10-24T07:52:01;8.57;;;3.20;;
15488;SDS011;7846;48.830;9.116;2022-10-24T07:54:27;11.87;;;3.23;;
15488;SDS011;7846;48.830;9.116;2022-10-24T07:56:53;14.03;;;3.10;;
15488;SDS011;7846;48.830;9.116;2022-10-24T07:59:18;6.13;;;2.53;;
15488;SDS011;7846;48.830;9.116;2022-10-24T08:01:44;5.70;;;2.60;;
15488;SDS011;7846;48.830;9.116;2022-10-24T08:04:10;10.10;;;3.03;;
15488;SDS011;7846;48.830;9.116;2022-10-24T08:06:36;10.10;;;3.10;;
15488;SDS011;7846;48.830;9.116;2022-10-24T08:09:02;9.93;;;2.90;;
15488;SDS011;7846;48.830;9.116;2022-10-24T08:11:28;8.77;;;2.57;;
15488;SDS011;7846;48.830;9.116;2022-10-24T08:13:55;4.73;;;2.30;;
15488;SDS011;7846;48.830;9.116;2022-10-24T08:16:23;8.67;;;2.50;;
15488;SDS011;7846;48.830;9.116;2022-10-24T08:18:50;7.13;;;2.40;;
15488;SDS011;7846;48.830;9.116;2022-10-24T08:21:17;5.27;;;2.10;;
15488;SDS011;7846;48.830;9.116;2022-10-24T08:23:44;10.07;;;2.63;;
15488;SDS011;7846;48.830;9.116;2022-10-24T08:26:12;8.50;;;2.67;;
15488;SDS011;7846;48.830;9.116;2022-10-24T08:28:40;6.90;;;2.47;;
15488;SDS011;7846;48.830;9.116;2022-10-24T08:31:07;12.10;;;2.53;;
15488;SDS011;7846;48.830;9.116;2022-10-24T08:33:35;7.60;;;2.40;;
15488;SDS011;7846;48.830;9.116;2022-10-24T08:36:05;5.43;;;2.17;;
15488;SDS011;7846;48.830;9.116;2022-10-24T08:38:39;6.60;;;2.33;;
15488;SDS011;7846;48.830;9.116;2022-10-24T08:41:08;7.20;;;2.70;;
15488;SDS011;7846;48.830;9.116;2022-10-24T08:43:40;4.20;;;2.00;;
15488;SDS011;7846;48.830;9.116;2022-10-24T08:48:54;6.80;;;2.17;;
15488;SDS011;7846;48.830;9.116;2022-10-24T08:51:36;5.83;;;2.30;;
15488;SDS011;7846;48.830;9.116;2022-10-24T08:54:09;4.10;;;1.83;;
15488;SDS011;7846;48.830;9.116;2022-10-24T08:56:38;7.87;;;2.60;;
15488;SDS011;7846;48.830;9.116;2022-10-24T08:59:03;6.80;;;1.70;;
15488;SDS011;7846;48.830;9.116;2022-10-24T09:04:17;8.37;;;2.60;;
15488;SDS011;7846;48.830;9.116;2022-10-24T09:06:47;6.10;;;2.30;;
15488;SDS011;7846;48.830;9.116;2022-10-24T09:14:39;5.27;;;1.97;;
15488;SDS011;7846;48.830;9.116;2022-10-24T09:17:10;7.43;;;2.30;;
15488;SDS011;7846;48.830;9.116;2022-10-24T09:19:40;5.27;;;1.97;;
15488;SDS011;7846;48.830;9.116;2022-10-24T09:22:12;5.13;;;2.33;;
15488;SDS011;7846;48.830;9.116;2022-10-24T09:24:42;5.37;;;2.07;;
15488;SDS011;7846;48.830;9.116;2022-10-24T09:27:13;4.80;;;2.30;;
15488;SDS011;7846;48.830;9.116;2022-10-24T09:29:42;4.57;;;2.53;;
15488;SDS011;7846;48.830;9.116;2022-10-24T09:32:18;7.23;;;2.50;;
15488;SDS011;7846;48.830;9.116;2022-10-24T09:34:46;5.30;;;2.30;;
15488;SDS011;7846;48.830;9.116;2022-10-24T09:37:29;6.37;;;2.10;;
15488;SDS011;7846;48.830;9.116;2022-10-24T09:40:13;7.47;;;2.50;;
15488;SDS011;7846;48.830;9.116;2022-10-24T09:42:49;4.00;;;2.10;;
15488;SDS011;7846;48.830;9.116;2022-10-24T09:45:21;7.10;;;2.37;;
15488;SDS011;7846;48.830;9.116;2022-10-24T09:47:56;5.57;;;1.90;;
15488;SDS011;7846;48.830;9.116;2022-10-24T09:50:24;3.83;;;1.90;;
15488;SDS011;7846;48.830;9.116;2022-10-24T09:52:51;4.00;;;1.90;;
15488;SDS011;7846;48.830;9.116;2022-10-24T09:55:22;5.17;;;1.93;;
15488;SDS011;7846;48.830;9.116;2022-10-24T09:57:56;4.63;;;2.00;;
15488;SDS011;7846;48.830;9.116;2022-10-24T10:00:29;4.33;;;2.10;;
15488;SDS011;7846;48.830;9.116;2022-10-24T10:03:01;5.33;;;2.00;;
15488;SDS011;7846;48.830;9.116;2022-10-24T10:05:29;5.53;;;2.13;;
15488;SDS011;7846;48.830;9.116;2022-10-24T10:08:10;7.60;;;2.10;;
15488;SDS011;7846;48.830;9.116;2022-10-24T10:10:42;4.27;;;1.80;;
15488;SDS011;7846;48.830;9.116;2022-10-24T10:13:20;5.07;;;2.10;;
15488;SDS011;7846;48.830;9.116;2022-10-24T10:15:52;4.37;;;1.90;;
15488;SDS011;7846;48.830;9.116;2022-10-24T10:20:59;10.87;;;2.87;;
15488;SDS011;7846;48.830;9.116;2022-10-24T10:23:32;5.80;;;1.90;;
15488;SDS011;7846;48.830;9.116;2022-10-24T10:26:02;3.90;;;1.97;;
15488;SDS011;7846;48.830;9.116;2022-10-24T10:28:27;6.07;;;1.80;;
15488;SDS011;7846;48.830;9.116;2022-10-24T10:30:55;5.20;;;2.10;;
15488;SDS011;7846;48.830;9.116;2022-10-24T10:33:29;3.33;;;1.80;;
15488;SDS011;7846;48.830;9.116;2022-10-24T10:36:12;4.13;;;1.87;;
15488;SDS011;7846;48.830;9.116;2022-10-24T10:38:52;5.20;;;1.57;;
15488;SDS011;7846;48.830;9.116;2022-10-24T10:44:07;3.43;;;1.57;;
15488;SDS011;7846;48.830;9.116;2022-10-24T10:49:23;4.13;;;1.50;;
15488;SDS011;7846;48.830;9.116;2022-10-24T10:52:01;4.23;;;1.53;;
15488;SDS011;7846;48.830;9.116;2022-10-24T10:54:51;3.97;;;1.60;;
15488;SDS011;7846;48.830;9.116;2022-10-24T11:00:43;5.83;;;1.80;;
15488;SDS011;7846;48.830;9.116;2022-10-24T11:06:44;2.77;;;1.10;;
15488;SDS011;7846;48.830;9.116;2022-10-24T11:17:55;2.30;;;1.20;;
15488;SDS011;7846;48.830;9.116;2022-10-24T11:20:32;3.93;;;1.10;;
15488;SDS011;7846;48.830;9.116;2022-10-24T11:23:24;2.60;;;1.30;;
15488;SDS011;7846;48.830;9.116;2022-10-24T11:25:58;2.73;;;1.40;;
15488;SDS011;7846;48.830;9.116;2022-10-24T11:28:43;3.17;;;1.67;;
15488;SDS011;7846;48.830;9.116;2022-10-24T11:31:20;2.53;;;1.20;;
15488;SDS011;7846;48.830;9.116;2022-10-24T11:33:52;3.07;;;1.50;;
15488;SDS011;7846;48.830;9.116;2022-10-24T11:45:13;4.37;;;1.50;;
15488;SDS011;7846;48.830;9.116;2022-10-24T11:50:17;2.87;;;1.20;;
15488;SDS011;7846;48.830;9.116;2022-10-24T11:52:51;2.90;;;1.30;;
15488;SDS011;7846;48.830;9.116;2022-10-24T11:55:22;4.07;;;1.40;;
15488;SDS011;7846;48.830;9.116;2022-10-24T11:57:53;1.80;;;1.20;;
15488;SDS011;7846;48.830;9.116;2022-10-24T12:00:32;1.20;;;1.00;;
15488;SDS011;7846;48.830;9.116;2022-10-24T12:03:24;2.77;;;1.20;;
15488;SDS011;7846;48.830;9.116;2022-10-24T12:06:15;3.37;;;1.20;;
15488;SDS011;7846;48.830;9.116;2022-10-24T12:17:00;3.30;;;1.40;;
15488;SDS011;7846;48.830;9.116;2022-10-24T12:19:38;3.50;;;1.20;;
15488;SDS011;7846;48.830;9.116;2022-10-24T12:22:06;3.80;;;1.23;;
15488;SDS011;7846;48.830;9.116;2022-10-24T12:24:39;2.63;;;1.23;;
15488;SDS011;7846;48.830;9.116;2022-10-24T12:29:43;4.53;;;1.40;;
15488;SDS011;7846;48.830;9.116;2022-10-24T12:32:29;4.80;;;1.37;;
15488;SDS011;7846;48.830;9.116;2022-10-24T12:35:01;8.83;;;4.97;;
15488;SDS011;7846;48.830;9.116;2022-10-24T12:39:52;5.83;;;1.60;;
15488;SDS011;7846;48.830;9.116;2022-10-24T12:44:47;5.70;;;1.40;;
15488;SDS011;7846;48.830;9.116;2022-10-24T12:47:40;1.53;;;1.33;;
15488;SDS011;7846;48.830;9.116;2022-10-24T12:52:50;2.93;;;1.03;;
15488;SDS011;7846;48.830;9.116;2022-10-24T12:55:59;4.83;;;1.43;;
15488;SDS011;7846;48.830;9.116;2022-10-24T12:58:23;1.93;;;1.23;;
15488;SDS011;7846;48.830;9.116;2022-10-24T13:03:21;2.00;;;1.20;;
15488;SDS011;7846;48.830;9.116;2022-10-24T13:06:06;3.73;;;1.20;;
15488;SDS011;7846;48.830;9.116;2022-10-24T13:09:11;2.33;;;1.30;;
15488;SDS011;7846;48.830;9.116;2022-10-24T13:20:32;2.53;;;1.40;;
15488;SDS011;7846;48.830;9.116;2022-10-24T13:22:47;2.83;;;1.20;;
15488;SDS011;7846;48.830;9.116;2022-10-24T13:30:46;5.03;;;1.47;;
15488;SDS011;7846;48.830;9.116;2022-10-24T13:36:17;4.33;;;1.40;;
15488;SDS011;7846;48.830;9.116;2022-10-24T13:39:00;3.33;;;1.40;;
15488;SDS011;7846;48.830;9.116;2022-10-24T13:41:30;5.17;;;1.50;;
15488;SDS011;7846;48.830;9.116;2022-10-24T13:46:37;2.07;;;1.20;;
15488;SDS011;7846;48.830;9.116;2022-10-24T13:49:11;3.73;;;1.60;;
15488;SDS011;7846;48.830;9.116;2022-10-24T13:51:43;3.53;;;1.37;;
15488;SDS011;7846;48.830;9.116;2022-10-24T13:54:16;2.90;;;1.70;;
15488;SDS011;7846;48.830;9.116;2022-10-24T13:56:46;3.53;;;1.33;;
15488;SDS011;7846;48.830;9.116;2022-10-24T14:02:19;1.90;;;1.23;;
15488;SDS011;7846;48.830;9.116;2022-10-24T14:04:47;4.83;;;1.20;;
15488;SDS011;7846;48.830;9.116;2022-10-24T14:07:20;2.23;;;1.30;;
15488;SDS011;7846;48.830;9.116;2022-10-24T14:09:58;2.17;;;1.23;;
15488;SDS011;7846;48.830;9.116;2022-10-24T14:12:36;3.90;;;1.23;;
15488;SDS011;7846;48.830;9.116;2022-10-24T14:15:04;4.37;;;1.33;;
15488;SDS011;7846;48.830;9.116;2022-10-24T14:17:32;3.90;;;1.30;;
15488;SDS011;7846;48.830;9.116;2022-10-24T14:22:39;1.63;;;1.20;;
15488;SDS011;7846;48.830;9.116;2022-10-24T14:25:05;1.90;;;1.23;;
15488;SDS011;7846;48.830;9.116;2022-10-24T14:27:45;3.93;;;1.20;;
15488;SDS011;7846;48.830;9.116;2022-10-24T14:30:16;2.80;;;1.20;;
15488;SDS011;7846;48.830;9.116;2022-10-24T14:32:44;3.77;;;1.57;;
15488;SDS011;7846;48.830;9.116;2022-10-24T14:35:11;3.53;;;1.50;;
15488;SDS011;7846;48.830;9.116;2022-10-24T14:37:38;2.77;;;1.20;;
15488;SDS011;7846;48.830;9.116;2022-10-24T14:40:13;3.00;;;1.30;;
15488;SDS011;7846;48.830;9.116;2022-10-24T14:42:40;4.33;;;1.53;;
15488;SDS011;7846;48.830;9.116;2022-10-24T14:45:25;5.80;;;1.50;;
15488;SDS011;7846;48.830;9.116;2022-10-24T14:47:55;2.73;;;1.40;;
15488;SDS011;7846;48.830;9.116;2022-10-24T14:50:42;2.37;;;1.10;;
15488;SDS011;7846;48.830;9.116;2022-10-24T14:53:24;2.97;;;1.20;;
15488;SDS011;7846;48.830;9.116;2022-10-24T14:55:52;2.30;;;1.00;;
15488;SDS011;7846;48.830;9.116;2022-10-24T14:58:21;2.40;;;1.33;;
15488;SDS011;7846;48.830;9.116;2022-10-24T15:00:51;2.43;;;1.17;;
15488;SDS011;7846;48.830;9.116;2022-10-24T15:03:18;4.00;;;1.33;;
15488;SDS011;7846;48.830;9.116;2022-10-24T15:05:54;3.10;;;1.30;;
15488;SDS011;7846;48.830;9.116;2022-10-24T15:08:41;1.50;;;1.07;;
15488;SDS011;7846;48.830;9.116;2022-10-24T15:11:19;2.07;;;1.23;;
15488;SDS011;7846;48.830;9.116;2022-10-24T15:13:51;3.93;;;1.20;;
15488;SDS011;7846;48.830;9.116;2022-10-24T15:16:18;4.70;;;1.20;;
15488;SDS011;7846;48.830;9.116;2022-10-24T15:18:50;2.77;;;1.30;;
15488;SDS011;7846;48.830;9.116;2022-10-24T15:21:18;2.53;;;1.17;;
15488;SDS011;7846;48.830;9.116;2022-10-24T15:23:48;1.20;;;1.10;;
15488;SDS011;7846;48.830;9.116;2022-10-24T15:29:04;2.07;;;1.20;;
15488;SDS011;7846;48.830;9.116;2022-10-24T15:31:41;2.07;;;1.20;;
15488;SDS011;7846;48.830;9.116;2022-10-24T15:34:11;1.70;;;1.20;;
15488;SDS011;7846;48.830;9.116;2022-10-24T15:36:40;2.57;;;1.30;;
15488;SDS011;7846;48.830;9.116;2022-10-24T15:41:36;3.60;;;1.30;;
15488;SDS011;7846;48.830;9.116;2022-10-24T15:44:14;1.70;;;1.20;;
15488;SDS011;7846;48.830;9.116;2022-10-24T15:46:41;1.53;;;1.10;;
15488;SDS011;7846;48.830;9.116;2022-10-24T15:49:07;2.37;;;1.20;;
15488;SDS011;7846;48.830;9.116;2022-10-24T15:51:32;2.53;;;1.23;;
15488;SDS011;7846;48.830;9.116;2022-10-24T15:53:59;1.37;;;1.20;;
15488;SDS011;7846;48.830;9.116;2022-10-24T15:56:27;2.90;;;1.43;;
15488;SDS011;7846;48.830;9.116;2022-10-24T15:58:52;2.70;;;1.30;;
15488;SDS011;7846;48.830;9.116;2022-10-24T16:01:26;4.00;;;1.40;;
15488;SDS011;7846;48.830;9.116;2022-10-24T16:03:54;2.07;;;1.30;;
15488;SDS011;7846;48.830;9.116;2022-10-24T16:06:20;1.47;;;1.37;;
15488;SDS011;7846;48.830;9.116;2022-10-24T16:08:47;2.47;;;1.50;;
15488;SDS011;7846;48.830;9.116;2022-10-24T16:11:13;1.67;;;1.50;;
15488;SDS011;7846;48.830;9.116;2022-10-24T16:13:38;3.87;;;1.37;;
15488;SDS011;7846;48.830;9.116;2022-10-24T16:16:04;3.40;;;1.30;;
15488;SDS011;7846;48.830;9.116;2022-10-24T16:18:30;1.47;;;1.37;;
15488;SDS011;7846;48.830;9.116;2022-10-24T16:20:56;2.00;;;1.30;;
15488;SDS011;7846;48.830;9.116;2022-10-24T16:23:22;3.73;;;1.40;;
15488;SDS011;7846;48.830;9.116;2022-10-24T16:25:47;3.07;;;1.40;;
15488;SDS011;7846;48.830;9.116;2022-10-24T16:28:12;5.60;;;1.90;;
15488;SDS011;7846;48.830;9.116;2022-10-24T16:30:39;3.47;;;1.67;;
15488;SDS011;7846;48.830;9.116;2022-10-24T16:33:05;5.00;;;1.60;;
15488;SDS011;7846;48.830;9.116;2022-10-24T16:35:33;4.90;;;1.60;;
15488;SDS011;7846;48.830;9.116;2022-10-24T16:37:59;3.67;;;1.50;;
15488;SDS011;7846;48.830;9.116;2022-10-24T16:40:27;4.10;;;1.60;;
15488;SDS011;7846;48.830;9.116;2022-10-24T16:42:54;2.83;;;1.50;;
15488;SDS011;7846;48.830;9.116;2022-10-24T16:45:22;1.63;;;1.50;;
15488;SDS011;7846;48.830;9.116;2022-10-24T16:47:48;2.93;;;1.60;;
15488;SDS011;7846;48.830;9.116;2022-10-24T16:50:16;5.73;;;1.60;;
15488;SDS011;7846;48.830;9.116;2022-10-24T16:52:47;3.57;;;1.70;;
15488;SDS011;7846;48.830;9.116;2022-10-24T16:55:17;5.63;;;1.77;;
15488;SDS011;7846;48.830;9.116;2022-10-24T16:57:42;3.47;;;1.40;;
15488;SDS011;7846;48.830;9.116;2022-10-24T17:00:08;5.20;;;1.70;;
15488;SDS011;7846;48.830;9.116;2022-10-24T17:02:38;5.17;;;1.70;;